createdAt,value
2023-04-16T00:00:42.804Z,14.37
2023-04-16T00:03:09.300Z,13.70
2023-04-16T00:05:35.760Z,12.23
2023-04-16T00:08:02.416Z,17.87
2023-04-16T00:10:28.715Z,16.20
2023-04-16T00:12:54.994Z,15.27
2023-04-16T00:15:21.244Z,15.63
2023-04-16T00:17:47.820Z,13.07
2023-04-16T00:20:14.205Z,16.13
2023-04-16T00:22:40.480Z,14.60
2023-04-16T00:25:06.896Z,18.17
2023-04-16T00:27:33.193Z,17.93
2023-04-16T00:29:59.472Z,18.90
2023-04-16T00:32:25.779Z,13.63
2023-04-16T00:34:52.057Z,15.60
2023-04-16T00:37:18.442Z,14.30
2023-04-16T00:39:44.707Z,15.43
2023-04-16T00:42:11.277Z,16.00
2023-04-16T00:44:37.612Z,13.43
2023-04-16T00:47:04.099Z,16.10
2023-04-16T00:49:31.331Z,15.77
2023-04-16T00:51:57.595Z,17.57
2023-04-16T00:54:24.632Z,18.27
2023-04-16T00:56:51.163Z,16.90
2023-04-16T00:59:17.757Z,16.93
2023-04-16T01:01:43.981Z,18.13
2023-04-16T01:04:10.552Z,17.07
2023-04-16T01:06:36.884Z,18.67
2023-04-16T01:09:03.317Z,19.20
2023-04-16T01:11:29.671Z,20.23
2023-04-16T01:13:55.989Z,16.10
2023-04-16T01:16:22.461Z,16.30
2023-04-16T01:18:48.892Z,17.43
2023-04-16T01:21:15.319Z,16.53
2023-04-16T01:23:41.618Z,14.63
2023-04-16T01:26:07.888Z,15.63
2023-04-16T01:28:34.164Z,17.20
2023-04-16T01:31:00.712Z,16.07
2023-04-16T01:33:27.028Z,17.43
2023-04-16T01:35:53.250Z,18.07
2023-04-16T01:38:19.715Z,20.67
2023-04-16T01:40:46.032Z,21.40
2023-04-16T01:43:12.289Z,22.50
2023-04-16T01:45:38.516Z,19.23
2023-04-16T01:48:05.041Z,21.27
2023-04-16T01:50:31.531Z,20.77
2023-04-16T01:52:57.871Z,22.47
2023-04-16T01:55:24.221Z,21.47
2023-04-16T01:57:50.617Z,17.90
2023-04-16T02:00:16.921Z,19.80
2023-04-16T02:02:43.293Z,18.00
2023-04-16T02:05:09.628Z,19.57
2023-04-16T02:07:36.184Z,23.20
2023-04-16T02:10:02.608Z,18.77
2023-04-16T02:12:29.542Z,20.43
2023-04-16T02:14:55.812Z,21.63
2023-04-16T02:17:22.160Z,21.87
2023-04-16T02:19:48.752Z,18.87
2023-04-16T02:22:15.334Z,19.17
2023-04-16T02:24:41.822Z,22.70
2023-04-16T02:27:08.099Z,25.30
2023-04-16T02:29:34.522Z,22.53
2023-04-16T02:32:00.928Z,17.70
2023-04-16T02:34:27.189Z,22.57
2023-04-16T02:36:54.959Z,23.17
2023-04-16T02:39:21.403Z,25.67
2023-04-16T02:41:47.694Z,23.07
2023-04-16T02:44:13.990Z,25.43
2023-04-16T02:46:40.431Z,22.40
2023-04-16T02:49:06.822Z,30.23
2023-04-16T02:51:33.241Z,27.60
2023-04-16T02:53:59.549Z,27.80
2023-04-16T02:56:26.206Z,26.93
2023-04-16T02:58:52.752Z,29.20
2023-04-16T03:01:19.100Z,25.33
2023-04-16T03:03:45.589Z,25.07
2023-04-16T03:06:12.688Z,24.23
2023-04-16T03:08:39.033Z,31.23
2023-04-16T03:11:05.310Z,27.23
2023-04-16T03:13:31.586Z,25.07
2023-04-16T03:15:57.987Z,26.53
2023-04-16T03:18:24.461Z,28.20
2023-04-16T03:20:53.966Z,25.83
2023-04-16T03:23:20.505Z,24.77
2023-04-16T03:25:47.989Z,26.57
2023-04-16T03:28:14.874Z,25.90
2023-04-16T03:30:41.148Z,27.03
2023-04-16T03:33:07.414Z,25.43
2023-04-16T03:35:33.750Z,26.13
2023-04-16T03:38:00.010Z,26.73
2023-04-16T03:40:26.297Z,26.83
2023-04-16T03:42:52.571Z,23.47
2023-04-16T03:45:18.879Z,28.37
2023-04-16T03:47:48.454Z,23.37
2023-04-16T03:50:14.744Z,29.33
2023-04-16T03:52:41.210Z,27.77
2023-04-16T03:55:07.706Z,34.03
2023-04-16T03:57:36.971Z,28.53
2023-04-16T04:00:03.465Z,31.10
2023-04-16T04:02:29.980Z,29.47
2023-04-16T04:04:56.371Z,29.73
2023-04-16T04:07:22.679Z,29.10
2023-04-16T04:09:48.953Z,29.93
2023-04-16T04:12:15.264Z,35.30
2023-04-16T04:14:41.748Z,26.37
2023-04-16T04:17:08.378Z,30.47
2023-04-16T04:19:34.684Z,30.70
2023-04-16T04:22:00.955Z,29.63
2023-04-16T04:24:27.278Z,33.80
2023-04-16T04:26:53.578Z,35.17
2023-04-16T04:29:19.856Z,30.43
2023-04-16T04:31:46.157Z,31.97
2023-04-16T04:34:12.459Z,35.77
2023-04-16T04:36:38.710Z,35.47
2023-04-16T04:39:04.986Z,35.57
2023-04-16T04:41:31.353Z,31.20
2023-04-16T04:43:57.605Z,36.13
2023-04-16T04:46:23.915Z,34.03
2023-04-16T04:48:50.483Z,37.77
2023-04-16T04:51:16.770Z,39.50
2023-04-16T04:53:43.135Z,34.90
2023-04-16T04:56:12.706Z,37.50
2023-04-16T04:58:39.734Z,35.93
2023-04-16T05:01:06.090Z,36.70
2023-04-16T05:03:32.508Z,35.07
2023-04-16T05:05:58.888Z,35.13
2023-04-16T05:08:25.185Z,29.70
2023-04-16T05:10:51.564Z,35.80
2023-04-16T05:13:17.864Z,32.80
2023-04-16T05:15:45.652Z,31.17
2023-04-16T05:18:11.901Z,30.90
2023-04-16T05:20:38.233Z,36.70
2023-04-16T05:23:04.449Z,36.60
2023-04-16T05:25:30.827Z,32.57
2023-04-16T05:27:57.094Z,31.60
2023-04-16T05:30:23.332Z,29.87
2023-04-16T05:32:49.732Z,28.60
2023-04-16T05:35:17.538Z,31.03
2023-04-16T05:37:44.113Z,26.17
2023-04-16T05:40:12.079Z,31.47
2023-04-16T05:42:38.321Z,30.77
2023-04-16T05:45:04.918Z,32.87
2023-04-16T05:47:31.268Z,27.80
2023-04-16T05:49:57.562Z,31.07
2023-04-16T05:52:23.868Z,30.73
2023-04-16T05:54:50.227Z,24.20
2023-04-16T05:57:16.521Z,27.80
2023-04-16T05:59:43.007Z,29.10
2023-04-16T06:02:09.469Z,32.27
2023-04-16T06:04:35.925Z,26.90
2023-04-16T06:07:02.232Z,34.13
2023-04-16T06:09:28.596Z,33.30
2023-04-16T06:11:55.362Z,29.93
2023-04-16T06:14:21.697Z,28.97
2023-04-16T06:16:48.020Z,33.40
2023-04-16T06:19:14.447Z,28.53
2023-04-16T06:21:40.752Z,27.80
2023-04-16T06:24:07.010Z,27.73
2023-04-16T06:26:33.273Z,25.60
2023-04-16T06:28:59.589Z,28.97
2023-04-16T06:31:26.246Z,28.53
2023-04-16T06:33:52.514Z,29.77
2023-04-16T06:36:18.852Z,31.60
2023-04-16T06:38:45.212Z,29.00
2023-04-16T06:41:11.598Z,25.97
2023-04-16T06:43:37.844Z,25.97
2023-04-16T06:46:04.217Z,24.37
2023-04-16T06:48:30.550Z,28.87
2023-04-16T06:50:56.855Z,40.23
2023-04-16T06:53:23.366Z,29.63
2023-04-16T06:55:49.681Z,27.23
2023-04-16T06:58:15.947Z,26.17
2023-04-16T07:00:42.235Z,28.47
2023-04-16T07:03:08.677Z,31.73
2023-04-16T07:05:35.140Z,27.60
2023-04-16T07:08:01.360Z,27.70
2023-04-16T07:10:27.623Z,29.70
2023-04-16T07:12:53.889Z,29.53
2023-04-16T07:15:20.139Z,33.03
2023-04-16T07:17:46.557Z,38.53
2023-04-16T07:20:12.894Z,32.17
2023-04-16T07:22:39.188Z,32.50
2023-04-16T07:25:05.725Z,28.57
2023-04-16T07:27:31.961Z,32.67
2023-04-16T07:29:58.235Z,29.73
2023-04-16T07:32:24.566Z,31.33
2023-04-16T07:34:51.016Z,32.17
2023-04-16T07:37:17.309Z,29.07
2023-04-16T07:39:43.621Z,35.10
2023-04-16T07:42:09.960Z,31.63
2023-04-16T07:44:36.276Z,34.63
2023-04-16T07:47:04.189Z,33.40
2023-04-16T07:49:31.944Z,33.00
2023-04-16T07:51:58.283Z,32.90
2023-04-16T07:54:24.534Z,32.40
2023-04-16T07:56:50.935Z,30.77
2023-04-16T07:59:23.039Z,30.20
2023-04-16T08:01:53.123Z,31.07
2023-04-16T08:04:24.569Z,34.40
2023-04-16T08:06:51.609Z,31.23
2023-04-16T08:09:18.845Z,40.97
2023-04-16T08:11:45.144Z,30.10
2023-04-16T08:14:11.441Z,31.30
2023-04-16T08:16:38.752Z,29.40
2023-04-16T08:19:06.382Z,30.27
2023-04-16T08:21:33.229Z,29.40
2023-04-16T08:23:59.564Z,30.93
2023-04-16T08:26:26.299Z,29.13
2023-04-16T08:28:52.558Z,25.43
2023-04-16T08:31:18.909Z,28.07
2023-04-16T08:33:45.192Z,30.20
2023-04-16T08:36:11.488Z,26.60
2023-04-16T08:38:37.744Z,27.30
2023-04-16T08:41:05.893Z,26.60
2023-04-16T08:43:37.127Z,34.17
2023-04-16T08:46:04.637Z,28.70
2023-04-16T08:48:33.427Z,25.33
2023-04-16T08:51:00.475Z,28.37
2023-04-16T08:53:35.604Z,27.80
2023-04-16T08:56:03.776Z,37.53
2023-04-16T08:58:31.826Z,46.43
2023-04-16T09:00:58.173Z,69.77
2023-04-16T09:03:24.615Z,69.03
2023-04-16T09:05:51.458Z,69.17
2023-04-16T09:08:18.110Z,69.53
2023-04-16T09:10:44.428Z,82.43
2023-04-16T09:13:11.640Z,72.73
2023-04-16T09:15:38.457Z,82.00
2023-04-16T09:18:04.829Z,76.67
2023-04-16T09:20:31.146Z,76.00
2023-04-16T09:22:57.474Z,70.77
2023-04-16T09:25:24.766Z,66.13
2023-04-16T09:27:51.245Z,71.80
2023-04-16T09:30:21.930Z,72.00
2023-04-16T09:32:48.660Z,65.13
2023-04-16T09:35:15.764Z,64.20
2023-04-16T09:37:42.047Z,70.30
2023-04-16T09:40:08.627Z,68.40
2023-04-16T09:42:36.167Z,71.33
2023-04-16T09:45:04.910Z,98.13
2023-04-16T09:47:39.791Z,58.93
2023-04-16T09:50:06.648Z,57.93
2023-04-16T09:52:36.096Z,53.87
2023-04-16T09:55:02.401Z,54.27
2023-04-16T09:57:29.337Z,47.47
2023-04-16T10:00:01.001Z,48.80
2023-04-16T10:02:28.139Z,44.30
2023-04-16T10:04:54.947Z,47.57
2023-04-16T10:07:21.530Z,43.47
2023-04-16T10:09:48.811Z,42.27
2023-04-16T10:12:15.945Z,41.03
2023-04-16T10:14:42.325Z,37.60
2023-04-16T10:17:09.068Z,35.13
2023-04-16T10:19:35.721Z,36.37
2023-04-16T10:22:02.679Z,35.57
2023-04-16T10:24:33.146Z,34.07
2023-04-16T10:26:59.987Z,33.63
2023-04-16T10:29:27.846Z,32.90
2023-04-16T10:31:55.087Z,33.50
2023-04-16T10:34:21.657Z,36.83
2023-04-16T10:36:49.096Z,47.10
2023-04-16T10:39:17.824Z,45.17
2023-04-16T10:41:44.968Z,42.77
2023-04-16T10:44:11.277Z,41.53
2023-04-16T10:46:41.476Z,38.90
2023-04-16T10:49:19.055Z,42.73
2023-04-16T10:51:55.746Z,36.50
2023-04-16T10:54:26.654Z,36.73
2023-04-16T10:56:53.738Z,42.43
2023-04-16T10:59:20.896Z,41.20
2023-04-16T11:01:48.822Z,40.20
2023-04-16T11:04:21.244Z,40.60
2023-04-16T11:07:01.746Z,37.33
2023-04-16T11:09:46.913Z,37.43
2023-04-16T11:12:18.387Z,36.00
2023-04-16T11:14:49.105Z,35.80
2023-04-16T11:17:15.409Z,37.00
2023-04-16T11:19:42.600Z,35.57
2023-04-16T11:22:11.690Z,35.93
2023-04-16T11:24:40.409Z,37.07
2023-04-16T11:27:09.502Z,38.60
2023-04-16T11:29:35.948Z,34.77
2023-04-16T11:32:02.394Z,36.40
2023-04-16T11:34:29.165Z,33.03
2023-04-16T11:36:55.426Z,35.77
2023-04-16T11:39:21.682Z,33.37
2023-04-16T11:41:48.731Z,33.57
2023-04-16T11:44:22.339Z,33.40
2023-04-16T11:46:49.187Z,32.20
2023-04-16T11:49:17.450Z,30.90
2023-04-16T11:51:44.787Z,30.10
2023-04-16T11:54:18.268Z,28.80
2023-04-16T11:56:46.838Z,30.37
2023-04-16T11:59:14.203Z,26.97
2023-04-16T12:01:41.711Z,28.13
2023-04-16T12:04:08.865Z,28.23
2023-04-16T12:06:35.595Z,29.43
2023-04-16T12:09:21.845Z,25.87
2023-04-16T12:11:48.106Z,31.60
2023-04-16T12:14:14.484Z,32.57
2023-04-16T12:16:40.780Z,31.90
2023-04-16T12:19:10.469Z,31.87
2023-04-16T12:21:37.705Z,31.80
2023-04-16T12:24:04.394Z,31.97
2023-04-16T12:26:38.260Z,29.50
2023-04-16T12:29:21.442Z,32.90
2023-04-16T12:31:48.478Z,30.03
2023-04-16T12:34:15.291Z,32.93
2023-04-16T12:36:42.204Z,30.50
2023-04-16T12:39:10.645Z,27.93
2023-04-16T12:41:38.027Z,27.80
2023-04-16T12:44:05.054Z,27.03
2023-04-16T12:46:31.725Z,28.90
2023-04-16T12:48:58.342Z,27.73
2023-04-16T12:51:24.630Z,27.53
2023-04-16T12:53:50.958Z,26.73
2023-04-16T12:56:17.205Z,30.30
2023-04-16T12:58:43.421Z,27.30
2023-04-16T13:01:09.760Z,28.20
2023-04-16T13:03:37.266Z,28.10
2023-04-16T13:06:03.930Z,25.73
2023-04-16T13:08:30.634Z,27.47
2023-04-16T13:10:56.950Z,29.97
2023-04-16T13:13:23.341Z,27.03
2023-04-16T13:15:49.742Z,26.20
2023-04-16T13:18:16.057Z,26.33
2023-04-16T13:20:42.470Z,24.80
2023-04-16T13:23:08.689Z,26.73
2023-04-16T13:25:34.920Z,37.03
2023-04-16T13:28:01.219Z,27.57
2023-04-16T13:30:29.253Z,25.17
2023-04-16T13:32:58.594Z,28.13
2023-04-16T13:35:24.936Z,25.73
2023-04-16T13:37:51.241Z,25.37
2023-04-16T13:40:17.721Z,25.57
2023-04-16T13:42:44.079Z,23.80
2023-04-16T13:45:10.496Z,22.83
2023-04-16T13:47:37.083Z,23.70
2023-04-16T13:50:03.945Z,22.70
2023-04-16T13:52:30.244Z,24.10
2023-04-16T13:54:58.420Z,23.43
2023-04-16T13:57:27.009Z,23.97
2023-04-16T13:59:53.433Z,23.60
2023-04-16T14:02:20.474Z,21.90
2023-04-16T14:04:46.771Z,25.43
2023-04-16T14:07:13.109Z,22.70
2023-04-16T14:09:39.354Z,22.23
2023-04-16T14:12:05.763Z,23.17
2023-04-16T14:14:32.028Z,24.43
2023-04-16T14:16:58.872Z,23.27
2023-04-16T14:19:25.290Z,22.13
2023-04-16T14:21:51.693Z,21.83
2023-04-16T14:24:17.975Z,21.60
2023-04-16T14:26:44.332Z,20.87
2023-04-16T14:29:10.835Z,20.00
2023-04-16T14:31:37.341Z,21.37
2023-04-16T14:34:03.692Z,25.07
2023-04-16T14:36:30.984Z,26.13
2023-04-16T14:38:57.265Z,19.90
2023-04-16T14:41:23.645Z,20.93
2023-04-16T14:43:49.964Z,23.83
2023-04-16T14:46:17.676Z,18.57
2023-04-16T14:48:44.289Z,18.33
2023-04-16T14:51:10.884Z,19.07
2023-04-16T14:53:37.656Z,20.93
2023-04-16T14:56:04.495Z,22.77
2023-04-16T14:58:31.388Z,19.97
2023-04-16T15:00:58.242Z,20.60
2023-04-16T15:03:25.093Z,22.17
2023-04-16T15:05:55.672Z,21.30
2023-04-16T15:08:22.436Z,20.40
2023-04-16T15:10:48.779Z,21.87
2023-04-16T15:13:15.511Z,19.73
2023-04-16T15:15:41.990Z,18.10
2023-04-16T15:18:08.489Z,52.97
2023-04-16T15:20:34.810Z,16.07
2023-04-16T15:23:01.187Z,16.50
2023-04-16T15:25:27.555Z,18.73
2023-04-16T15:27:53.952Z,17.43
2023-04-16T15:30:20.648Z,20.07
2023-04-16T15:32:46.974Z,20.93
2023-04-16T15:35:13.340Z,20.80
2023-04-16T15:37:39.673Z,20.27
2023-04-16T15:40:08.593Z,20.07
2023-04-16T15:42:34.885Z,22.83
2023-04-16T15:45:01.323Z,23.13
2023-04-16T15:47:28.798Z,21.93
2023-04-16T15:49:55.336Z,24.70
2023-04-16T15:52:21.758Z,24.63
2023-04-16T15:54:48.815Z,23.20
2023-04-16T15:57:15.289Z,25.53
2023-04-16T15:59:41.609Z,30.07
2023-04-16T16:02:07.969Z,27.27
2023-04-16T16:04:34.430Z,26.33
2023-04-16T16:07:02.825Z,26.23
2023-04-16T16:09:29.246Z,25.57
2023-04-16T16:11:55.914Z,26.03
2023-04-16T16:14:22.312Z,25.17
2023-04-16T16:16:48.756Z,27.80
2023-04-16T16:19:15.144Z,30.83
2023-04-16T16:21:41.582Z,28.90
2023-04-16T16:24:07.896Z,26.60
2023-04-16T16:26:34.221Z,25.77
2023-04-16T16:29:01.375Z,26.27
2023-04-16T16:31:27.918Z,25.90
2023-04-16T16:33:54.523Z,31.43
2023-04-16T16:36:21.461Z,27.93
2023-04-16T16:38:47.720Z,28.77
2023-04-16T16:41:14.202Z,31.67
2023-04-16T16:43:40.532Z,31.70
2023-04-16T16:46:07.384Z,27.40
2023-04-16T16:48:33.660Z,27.20
2023-04-16T16:50:59.979Z,28.07
2023-04-16T16:53:27.160Z,26.67
2023-04-16T16:55:53.479Z,32.30
2023-04-16T16:58:19.727Z,29.90
2023-04-16T17:00:46.092Z,31.97
2023-04-16T17:03:12.562Z,53.93
2023-04-16T17:05:39.154Z,29.93
2023-04-16T17:08:06.583Z,30.40
2023-04-16T17:10:32.911Z,30.50
2023-04-16T17:12:59.215Z,31.83
2023-04-16T17:15:25.809Z,29.27
2023-04-16T17:17:52.172Z,31.33
2023-04-16T17:20:18.570Z,30.47
2023-04-16T17:22:44.833Z,29.73
2023-04-16T17:25:11.589Z,28.07
2023-04-16T17:27:37.836Z,31.20
2023-04-16T17:30:05.389Z,32.83
2023-04-16T17:32:32.673Z,30.40
2023-04-16T17:35:00.364Z,31.07
2023-04-16T17:37:29.307Z,37.23
2023-04-16T17:39:55.962Z,33.77
2023-04-16T17:42:22.770Z,34.57
2023-04-16T17:44:49.058Z,32.13
2023-04-16T17:47:15.491Z,32.90
2023-04-16T17:49:41.912Z,34.10
2023-04-16T17:52:08.260Z,32.83
2023-04-16T17:54:34.571Z,34.17
2023-04-16T17:57:01.784Z,32.60
2023-04-16T17:59:28.079Z,31.70
2023-04-16T18:01:55.617Z,33.70
2023-04-16T18:04:22.149Z,31.50
2023-04-16T18:06:48.657Z,32.60
2023-04-16T18:09:15.403Z,35.63
2023-04-16T18:11:41.661Z,37.80
2023-04-16T18:14:09.933Z,36.73
2023-04-16T18:16:37.522Z,34.00
2023-04-16T18:19:03.870Z,38.03
2023-04-16T18:21:30.402Z,37.70
2023-04-16T18:23:56.902Z,37.47
2023-04-16T18:26:23.333Z,36.90
2023-04-16T18:28:49.610Z,37.17
2023-04-16T18:31:18.978Z,37.57
2023-04-16T18:33:56.248Z,65.17
2023-04-16T18:36:24.461Z,39.47
2023-04-16T18:39:00.919Z,38.77
2023-04-16T18:41:27.695Z,40.40
2023-04-16T18:43:54.490Z,38.90
2023-04-16T18:46:20.842Z,36.23
2023-04-16T18:48:47.179Z,36.10
2023-04-16T18:51:15.460Z,36.80
2023-04-16T18:53:44.062Z,35.60
2023-04-16T18:56:10.342Z,40.33
2023-04-16T18:58:36.737Z,35.40
2023-04-16T19:01:03.653Z,34.83
2023-04-16T19:03:30.918Z,36.37
2023-04-16T19:05:57.345Z,36.20
2023-04-16T19:08:23.715Z,32.30
2023-04-16T19:10:50.334Z,38.50
2023-04-16T19:13:16.697Z,35.47
2023-04-16T19:15:43.085Z,33.23
2023-04-16T19:18:09.609Z,37.37
2023-04-16T19:20:36.473Z,39.43
2023-04-16T19:23:05.910Z,31.80
2023-04-16T19:25:32.546Z,31.60
2023-04-16T19:27:58.871Z,31.80
2023-04-16T19:30:26.743Z,34.83
2023-04-16T19:32:55.115Z,36.03
2023-04-16T19:35:21.884Z,31.07
2023-04-16T19:37:49.142Z,31.03
2023-04-16T19:40:15.400Z,30.70
2023-04-16T19:42:42.674Z,30.67
2023-04-16T19:45:09.014Z,32.00
2023-04-16T19:47:35.536Z,29.30
2023-04-16T19:50:01.917Z,30.20
2023-04-16T19:52:28.170Z,29.00
2023-04-16T19:54:54.563Z,30.63
2023-04-16T19:57:20.879Z,30.77
2023-04-16T19:59:47.130Z,31.10
2023-04-16T20:02:13.451Z,31.33
2023-04-16T20:04:39.708Z,29.57
2023-04-16T20:07:06.337Z,31.90
2023-04-16T20:09:32.666Z,34.17
2023-04-16T20:11:58.961Z,35.20
2023-04-16T20:14:25.245Z,31.90
2023-04-16T20:16:52.208Z,32.33
2023-04-16T20:19:19.454Z,32.73
2023-04-16T20:21:46.005Z,31.67
2023-04-16T20:24:12.475Z,31.57
2023-04-16T20:26:38.790Z,30.60
2023-04-16T20:29:05.075Z,31.00
2023-04-16T20:31:31.414Z,30.03
2023-04-16T20:33:57.797Z,27.97
2023-04-16T20:36:24.042Z,29.80
2023-04-16T20:38:53.792Z,32.37
2023-04-16T20:41:21.097Z,29.90
2023-04-16T20:43:49.995Z,35.57
2023-04-16T20:46:17.452Z,33.93
2023-04-16T20:48:43.955Z,32.50
2023-04-16T20:51:10.196Z,34.83
2023-04-16T20:53:39.321Z,30.67
2023-04-16T20:56:06.814Z,29.03
2023-04-16T20:58:33.145Z,33.60
2023-04-16T21:00:59.516Z,30.87
2023-04-16T21:03:26.136Z,35.00
2023-04-16T21:05:54.142Z,32.53
2023-04-16T21:08:20.917Z,32.50
2023-04-16T21:10:47.259Z,33.80
2023-04-16T21:13:13.705Z,33.73
2023-04-16T21:15:40.768Z,31.77
2023-04-16T21:18:07.512Z,29.80
2023-04-16T21:20:34.146Z,31.63
2023-04-16T21:23:00.917Z,32.00
2023-04-16T21:25:27.278Z,34.17
2023-04-16T21:27:53.593Z,34.33
2023-04-16T21:30:19.932Z,33.00
2023-04-16T21:32:46.503Z,35.00
2023-04-16T21:35:13.189Z,33.27
2023-04-16T21:37:39.453Z,31.73
2023-04-16T21:40:06.335Z,34.57
2023-04-16T21:42:39.644Z,32.33
2023-04-16T21:45:07.371Z,34.27
2023-04-16T21:47:33.686Z,31.90
2023-04-16T21:49:59.994Z,30.90
2023-04-16T21:52:26.381Z,31.03
2023-04-16T21:54:52.699Z,29.43
2023-04-16T21:57:19.012Z,29.10
2023-04-16T21:59:45.347Z,33.67
2023-04-16T22:02:11.950Z,31.53
2023-04-16T22:04:38.984Z,30.87
2023-04-16T22:07:11.615Z,31.13
2023-04-16T22:09:38.476Z,32.77
2023-04-16T22:12:06.898Z,32.50
2023-04-16T22:14:36.139Z,32.97
2023-04-16T22:17:03.413Z,35.93
2023-04-16T22:19:29.794Z,33.93
2023-04-16T22:21:56.314Z,35.67
2023-04-16T22:24:22.986Z,34.50
2023-04-16T22:26:49.221Z,33.53
2023-04-16T22:29:15.660Z,31.90
2023-04-16T22:31:41.962Z,37.50
2023-04-16T22:34:08.681Z,32.63
2023-04-16T22:36:34.906Z,32.60
2023-04-16T22:39:01.168Z,34.37
2023-04-16T22:41:27.421Z,31.77
2023-04-16T22:43:53.703Z,32.43
2023-04-16T22:46:20.062Z,32.10
2023-04-16T22:48:46.375Z,33.33
2023-04-16T22:51:12.677Z,34.07
2023-04-16T22:53:38.894Z,35.47
2023-04-16T22:56:05.327Z,36.27
2023-04-16T22:58:31.686Z,38.93
2023-04-16T23:00:59.488Z,40.87
2023-04-16T23:03:26.032Z,43.37
2023-04-16T23:05:52.391Z,46.50
2023-04-16T23:08:18.645Z,45.40
2023-04-16T23:10:44.979Z,52.27
2023-04-16T23:13:11.294Z,50.03
2023-04-16T23:15:37.705Z,43.60
2023-04-16T23:18:04.051Z,53.20
2023-04-16T23:20:30.456Z,47.47
2023-04-16T23:22:56.753Z,52.77
2023-04-16T23:25:23.530Z,52.60
2023-04-16T23:27:49.868Z,61.50
2023-04-16T23:30:16.508Z,56.47
2023-04-16T23:32:42.816Z,58.03
2023-04-16T23:35:09.310Z,60.17
2023-04-16T23:37:35.619Z,64.03
2023-04-16T23:40:02.163Z,65.80
2023-04-16T23:42:28.489Z,63.63
2023-04-16T23:44:54.832Z,64.80
2023-04-16T23:47:21.165Z,68.90
2023-04-16T23:49:50.016Z,62.63
2023-04-16T23:52:16.322Z,72.27
2023-04-16T23:54:42.584Z,65.40
2023-04-16T23:57:09.046Z,67.67
2023-04-16T23:59:35.383Z,74.33
